createdAt,value
2022-11-05T00:00:29.924Z,81.58
2022-11-05T00:03:16.906Z,80.99
2022-11-05T00:06:03.237Z,80.65
2022-11-05T00:08:48.609Z,81.05
2022-11-05T00:11:18.224Z,81.61
2022-11-05T00:14:03.967Z,80.88
2022-11-05T00:16:46.587Z,81.30
2022-11-05T00:19:16.695Z,81.06
2022-11-05T00:22:01.948Z,81.12
2022-11-05T00:24:47.158Z,81.01
2022-11-05T00:27:14.774Z,81.62
2022-11-05T00:29:42.341Z,81.76
2022-11-05T00:32:09.948Z,81.63
2022-11-05T00:34:38.908Z,81.52
2022-11-05T00:37:06.846Z,81.65
2022-11-05T00:39:34.448Z,81.65
2022-11-05T00:42:19.581Z,82.23
2022-11-05T00:45:02.534Z,82.18
2022-11-05T00:47:47.788Z,82.08
2022-11-05T00:50:17.525Z,81.50
2022-11-05T00:52:57.578Z,81.08
2022-11-05T00:55:34.221Z,81.22
2022-11-05T00:58:03.832Z,81.26
2022-11-05T01:00:33.010Z,81.47
2022-11-05T01:03:02.596Z,81.73
2022-11-05T01:05:33.880Z,82.09
2022-11-05T01:08:01.919Z,81.75
2022-11-05T01:10:30.198Z,81.74
2022-11-05T01:12:58.685Z,81.62
2022-11-05T01:15:26.341Z,81.89
2022-11-05T01:17:53.969Z,82.20
2022-11-05T01:20:21.626Z,82.28
2022-11-05T01:22:50.538Z,82.46
2022-11-05T01:25:18.224Z,82.42
2022-11-05T01:27:46.014Z,81.94
2022-11-05T01:30:14.750Z,81.79
2022-11-05T01:32:42.516Z,82.05
2022-11-05T01:35:14.234Z,81.46
2022-11-05T01:37:42.118Z,81.42
2022-11-05T01:40:12.495Z,81.06
2022-11-05T01:42:40.078Z,81.32
2022-11-05T01:45:15.003Z,81.48
2022-11-05T01:48:02.586Z,81.08
2022-11-05T01:50:38.353Z,81.00
2022-11-05T01:53:13.567Z,81.32
2022-11-05T01:55:46.945Z,81.60
2022-11-05T01:58:17.733Z,81.48
2022-11-05T02:00:45.651Z,81.46
2022-11-05T02:03:16.136Z,81.12
2022-11-05T02:05:44.397Z,81.15
2022-11-05T02:08:17.473Z,81.33
2022-11-05T02:10:46.876Z,81.41
2022-11-05T02:13:14.581Z,81.47
2022-11-05T02:15:52.079Z,80.78
2022-11-05T02:18:30.697Z,80.49
2022-11-05T02:21:15.242Z,80.48
2022-11-05T02:24:24.458Z,80.60
2022-11-05T02:27:11.043Z,81.08
2022-11-05T02:30:13.082Z,80.38
2022-11-05T02:32:57.747Z,80.59
2022-11-05T02:35:38.693Z,81.14
2022-11-05T02:38:10.032Z,81.72
2022-11-05T02:40:46.845Z,82.13
2022-11-05T02:43:23.353Z,82.24
2022-11-05T02:46:03.989Z,81.96
2022-11-05T02:48:43.896Z,82.21
2022-11-05T02:51:18.815Z,82.23
2022-11-05T02:53:51.931Z,81.63
2022-11-05T02:56:24.966Z,82.06
2022-11-05T02:58:52.592Z,81.92
2022-11-05T03:01:20.195Z,81.99
2022-11-05T03:03:54.950Z,81.71
2022-11-05T03:06:46.628Z,81.87
2022-11-05T03:09:30.931Z,81.99
2022-11-05T03:12:09.114Z,81.91
2022-11-05T03:14:44.573Z,81.23
2022-11-05T03:17:22.387Z,80.58
2022-11-05T03:20:02.197Z,80.18
2022-11-05T03:22:35.307Z,79.90
2022-11-05T03:25:06.493Z,79.31
2022-11-05T03:27:38.206Z,79.59
2022-11-05T03:30:11.748Z,79.50
2022-11-05T03:32:42.891Z,79.00
2022-11-05T03:35:17.206Z,78.95
2022-11-05T03:37:48.223Z,78.63
2022-11-05T03:40:19.267Z,78.33
2022-11-05T03:42:50.638Z,77.82
2022-11-05T03:45:23.580Z,77.60
2022-11-05T03:47:54.283Z,77.02
2022-11-05T03:50:28.473Z,76.80
2022-11-05T03:53:00.988Z,77.07
2022-11-05T03:55:36.130Z,76.97
2022-11-05T03:58:05.912Z,76.31
2022-11-05T04:00:34.531Z,76.14
2022-11-05T04:03:02.206Z,76.16
2022-11-05T04:05:31.536Z,75.89
2022-11-05T04:08:16.811Z,75.65
2022-11-05T04:11:01.354Z,75.79
2022-11-05T04:13:29.549Z,76.11
2022-11-05T04:16:15.652Z,76.74
2022-11-05T04:18:44.121Z,77.50
2022-11-05T04:21:38.811Z,77.45
2022-11-05T04:24:09.979Z,77.02
2022-11-05T04:26:39.118Z,76.61
2022-11-05T04:29:24.915Z,77.21
2022-11-05T04:31:52.939Z,77.08
2022-11-05T04:34:21.982Z,77.11
2022-11-05T04:36:51.631Z,77.08
2022-11-05T04:39:20.038Z,76.77
2022-11-05T04:41:48.505Z,76.87
2022-11-05T04:44:16.308Z,76.37
2022-11-05T04:46:44.126Z,76.43
2022-11-05T04:49:11.742Z,76.56
2022-11-05T04:51:39.302Z,76.37
2022-11-05T04:54:08.245Z,76.14
2022-11-05T04:56:35.850Z,76.42
2022-11-05T04:59:03.484Z,75.51
2022-11-05T05:01:31.180Z,74.97
2022-11-05T05:03:58.882Z,75.06
2022-11-05T05:06:26.673Z,75.41
2022-11-05T05:08:54.355Z,75.50
2022-11-05T05:11:23.272Z,75.17
2022-11-05T05:13:51.517Z,76.27
2022-11-05T05:16:22.096Z,76.24
2022-11-05T05:18:50.754Z,76.41
2022-11-05T05:21:37.655Z,76.83
2022-11-05T05:24:05.998Z,76.66
2022-11-05T05:26:34.932Z,76.37
2022-11-05T05:29:02.562Z,76.44
2022-11-05T05:31:30.178Z,76.34
2022-11-05T05:33:58.457Z,77.13
2022-11-05T05:36:26.035Z,76.99
2022-11-05T05:38:53.748Z,76.89
2022-11-05T05:41:21.798Z,76.83
2022-11-05T05:43:51.049Z,76.34
2022-11-05T05:46:19.851Z,76.40
2022-11-05T05:48:50.502Z,76.69
2022-11-05T05:51:19.144Z,76.63
2022-11-05T05:53:46.909Z,77.44
2022-11-05T05:56:19.119Z,76.78
2022-11-05T05:58:47.030Z,76.20
2022-11-05T06:01:19.593Z,76.37
2022-11-05T06:03:48.217Z,76.80
2022-11-05T06:06:19.496Z,76.98
2022-11-05T06:08:47.415Z,76.58
2022-11-05T06:11:15.150Z,76.30
2022-11-05T06:13:42.768Z,76.03
2022-11-05T06:16:11.646Z,75.78
2022-11-05T06:18:40.638Z,75.76
2022-11-05T06:21:10.773Z,75.40
2022-11-05T06:23:40.238Z,75.60
2022-11-05T06:26:09.748Z,75.71
2022-11-05T06:28:37.376Z,75.80
2022-11-05T06:31:05.571Z,75.36
2022-11-05T06:33:33.231Z,75.48
2022-11-05T06:36:02.897Z,75.22
2022-11-05T06:38:33.598Z,75.04
2022-11-05T06:41:07.140Z,75.04
2022-11-05T06:43:36.841Z,75.57
2022-11-05T06:46:04.785Z,76.16
2022-11-05T06:48:32.587Z,76.08
2022-11-05T06:51:00.227Z,75.96
2022-11-05T06:53:31.450Z,75.96
2022-11-05T06:56:02.447Z,75.64
2022-11-05T06:58:30.869Z,75.66
2022-11-05T07:01:01.297Z,75.64
2022-11-05T07:03:28.955Z,76.07
2022-11-05T07:05:59.025Z,76.07
2022-11-05T07:08:26.921Z,75.77
2022-11-05T07:10:55.872Z,75.25
2022-11-05T07:13:23.629Z,75.29
2022-11-05T07:15:51.205Z,75.53
2022-11-05T07:18:18.865Z,75.92
2022-11-05T07:20:46.505Z,75.47
2022-11-05T07:23:15.608Z,75.87
2022-11-05T07:25:44.136Z,75.88
2022-11-05T07:28:14.351Z,75.38
2022-11-05T07:30:42.045Z,75.31
2022-11-05T07:33:10.633Z,74.81
2022-11-05T07:35:38.458Z,74.94
2022-11-05T07:38:06.054Z,75.43
2022-11-05T07:40:33.667Z,75.34
2022-11-05T07:43:02.934Z,75.62
2022-11-05T07:45:32.381Z,75.41
2022-11-05T07:48:01.643Z,75.47
2022-11-05T07:50:31.946Z,75.95
2022-11-05T07:53:03.142Z,75.16
2022-11-05T07:55:31.166Z,74.61
2022-11-05T07:57:59.070Z,74.94
2022-11-05T08:00:27.869Z,74.34
2022-11-05T08:03:09.264Z,73.80
2022-11-05T08:05:38.831Z,73.53
2022-11-05T08:08:07.927Z,73.42
2022-11-05T08:10:36.050Z,72.87
2022-11-05T08:13:03.778Z,72.47
2022-11-05T08:15:32.130Z,72.24
2022-11-05T08:18:02.985Z,72.02
2022-11-05T08:20:31.467Z,72.15
2022-11-05T08:22:59.153Z,71.75
2022-11-05T08:25:27.197Z,71.14
2022-11-05T08:27:58.858Z,71.41
2022-11-05T08:30:27.246Z,71.96
2022-11-05T08:32:58.245Z,71.78
2022-11-05T08:35:28.138Z,71.83
2022-11-05T08:37:58.938Z,71.77
2022-11-05T08:40:26.843Z,71.96
2022-11-05T08:42:54.642Z,71.98
2022-11-05T08:45:22.235Z,72.04
2022-11-05T08:47:49.767Z,71.85
2022-11-05T08:50:17.707Z,71.55
2022-11-05T08:52:46.679Z,71.44
2022-11-05T08:55:14.258Z,69.74
2022-11-05T08:57:41.879Z,68.68
2022-11-05T09:00:11.087Z,69.00
2022-11-05T09:02:38.755Z,69.44
2022-11-05T09:05:06.808Z,69.80
2022-11-05T09:07:34.552Z,69.39
2022-11-05T09:10:03.500Z,69.69
2022-11-05T09:12:31.169Z,69.50
2022-11-05T09:14:58.850Z,69.77
2022-11-05T09:17:26.467Z,70.30
2022-11-05T09:19:54.118Z,69.67
2022-11-05T09:22:21.705Z,68.91
2022-11-05T09:24:49.293Z,68.03
2022-11-05T09:27:18.863Z,67.03
2022-11-05T09:29:46.444Z,65.53
2022-11-05T09:32:18.358Z,63.54
2022-11-05T09:34:45.983Z,62.12
2022-11-05T09:37:13.595Z,58.98
2022-11-05T09:39:41.183Z,57.70
2022-11-05T09:42:10.892Z,56.31
2022-11-05T09:44:44.076Z,56.78
2022-11-05T09:47:16.748Z,56.53
2022-11-05T09:49:50.258Z,56.64
2022-11-05T09:52:22.438Z,57.31
2022-11-05T09:54:51.408Z,57.12
2022-11-05T09:57:25.097Z,56.20
2022-11-05T09:59:57.837Z,55.94
2022-11-05T10:02:28.673Z,55.98
2022-11-05T10:05:00.014Z,55.93
2022-11-05T10:07:32.884Z,52.85
2022-11-05T10:10:04.372Z,50.00
2022-11-05T10:12:40.476Z,45.95
2022-11-05T10:15:15.177Z,41.81
2022-11-05T10:17:48.692Z,38.04
2022-11-05T10:20:23.808Z,33.50
2022-11-05T10:22:57.552Z,33.00
2022-11-05T10:25:37.878Z,35.04
2022-11-05T10:28:06.974Z,39.13
2022-11-05T10:30:35.311Z,41.30
2022-11-05T10:33:07.564Z,44.54
2022-11-05T10:35:48.630Z,47.21
2022-11-05T10:38:16.634Z,47.35
2022-11-05T10:40:59.461Z,46.50
2022-11-05T10:43:36.331Z,44.97
2022-11-05T10:46:22.514Z,45.05
2022-11-05T10:49:00.326Z,45.20
2022-11-05T10:51:28.425Z,45.50
2022-11-05T10:54:01.843Z,44.61
2022-11-05T10:56:33.716Z,40.98
2022-11-05T10:59:07.956Z,36.65
2022-11-05T11:01:39.648Z,34.61
2022-11-05T11:04:25.838Z,31.12
2022-11-05T11:06:56.608Z,31.80
2022-11-05T11:09:27.648Z,31.26
2022-11-05T11:12:02.481Z,32.07
2022-11-05T11:14:30.812Z,34.82
2022-11-05T11:17:18.572Z,37.36
2022-11-05T11:19:46.498Z,39.08
2022-11-05T11:22:19.716Z,38.47
2022-11-05T11:24:49.372Z,37.69
2022-11-05T11:27:22.534Z,38.00
2022-11-05T11:29:56.033Z,39.72
2022-11-05T11:32:28.619Z,39.46
2022-11-05T11:34:58.398Z,39.01
2022-11-05T11:37:30.050Z,38.98
2022-11-05T11:40:01.320Z,39.60
2022-11-05T11:42:32.740Z,40.44
2022-11-05T11:45:05.218Z,42.66
2022-11-05T11:47:33.762Z,44.34
2022-11-05T11:50:02.938Z,46.51
2022-11-05T11:52:33.042Z,48.57
2022-11-05T11:55:22.562Z,49.93
2022-11-05T11:57:53.408Z,51.47
2022-11-05T12:00:26.788Z,51.89
2022-11-05T12:03:09.118Z,52.95
2022-11-05T12:05:46.156Z,53.38
2022-11-05T12:08:36.693Z,53.59
2022-11-05T12:11:11.647Z,54.78
2022-11-05T12:14:02.207Z,54.02
2022-11-05T12:16:46.463Z,55.93
2022-11-05T12:19:25.589Z,55.45
2022-11-05T12:22:05.127Z,56.09
2022-11-05T12:25:07.477Z,54.56
2022-11-05T12:27:49.005Z,55.70
2022-11-05T12:30:19.756Z,55.47
2022-11-05T12:33:13.132Z,54.30
2022-11-05T12:35:57.619Z,53.40
2022-11-05T12:38:42.125Z,52.37
2022-11-05T12:41:22.061Z,51.20
2022-11-05T12:44:02.867Z,51.39
2022-11-05T12:46:38.696Z,52.15
2022-11-05T12:49:33.674Z,52.24
2022-11-05T12:52:11.598Z,52.33
2022-11-05T12:54:53.464Z,51.15
2022-11-05T12:57:22.916Z,50.10
2022-11-05T12:59:54.784Z,51.23
2022-11-05T13:02:30.649Z,52.82
2022-11-05T13:05:05.045Z,52.21
2022-11-05T13:07:36.934Z,52.89
2022-11-05T13:10:09.143Z,52.63
2022-11-05T13:12:40.987Z,52.59
2022-11-05T13:15:22.837Z,52.00
2022-11-05T13:17:56.267Z,52.22
2022-11-05T13:20:27.457Z,51.73
2022-11-05T13:22:59.920Z,52.43
2022-11-05T13:25:30.488Z,51.78
2022-11-05T13:28:07.188Z,53.29
2022-11-05T13:30:38.332Z,53.00
2022-11-05T13:33:16.128Z,53.49
2022-11-05T13:35:48.750Z,52.77
2022-11-05T13:38:40.722Z,53.37
2022-11-05T13:41:26.582Z,54.01
2022-11-05T13:44:23.536Z,55.23
2022-11-05T13:47:20.688Z,55.80
2022-11-05T13:50:20.307Z,54.03
2022-11-05T13:53:05.238Z,55.15
2022-11-05T13:55:48.981Z,56.13
2022-11-05T13:58:46.456Z,55.95
2022-11-05T14:01:27.304Z,55.47
2022-11-05T14:03:57.471Z,55.67
2022-11-05T14:06:29.439Z,56.06
2022-11-05T14:09:01.244Z,56.84
2022-11-05T14:11:31.822Z,57.99
2022-11-05T14:14:02.510Z,56.57
2022-11-05T14:16:48.098Z,56.52
2022-11-05T14:19:31.091Z,57.19
2022-11-05T14:22:00.896Z,56.21
2022-11-05T14:24:42.501Z,56.20
2022-11-05T14:27:45.433Z,56.98
2022-11-05T14:30:42.133Z,56.62
2022-11-05T14:33:32.952Z,58.20
2022-11-05T14:36:36.232Z,56.92
2022-11-05T14:39:24.649Z,56.70
2022-11-05T14:42:02.811Z,57.75
2022-11-05T14:44:33.636Z,57.57
2022-11-05T14:47:04.353Z,57.78
2022-11-05T14:49:36.707Z,58.26
2022-11-05T14:52:08.993Z,58.82
2022-11-05T14:54:43.923Z,58.95
2022-11-05T14:57:14.070Z,59.32
2022-11-05T15:00:03.071Z,58.91
2022-11-05T15:02:36.892Z,59.26
2022-11-05T15:05:40.153Z,59.91
2022-11-05T15:08:39.271Z,60.33
2022-11-05T15:11:14.444Z,59.77
2022-11-05T15:13:51.810Z,60.09
2022-11-05T15:16:23.954Z,59.86
2022-11-05T15:18:53.528Z,59.40
2022-11-05T15:21:22.431Z,59.29
2022-11-05T15:23:54.170Z,60.79
2022-11-05T15:26:27.423Z,60.61
2022-11-05T15:28:57.106Z,60.84
2022-11-05T15:31:31.384Z,61.04
2022-11-05T15:34:19.351Z,61.33
2022-11-05T15:36:53.180Z,61.61
2022-11-05T15:39:31.029Z,61.42
2022-11-05T15:42:02.658Z,61.94
2022-11-05T15:44:32.994Z,62.33
2022-11-05T15:47:09.083Z,61.75
2022-11-05T15:49:37.508Z,62.14
2022-11-05T15:52:05.825Z,61.83
2022-11-05T15:54:34.036Z,62.32
2022-11-05T15:57:03.711Z,62.26
2022-11-05T15:59:31.972Z,62.75
2022-11-05T16:02:06.729Z,62.86
2022-11-05T16:04:35.972Z,63.30
2022-11-05T16:07:10.388Z,64.10
2022-11-05T16:09:41.623Z,63.94
2022-11-05T16:12:15.946Z,64.09
2022-11-05T16:14:43.661Z,64.28
2022-11-05T16:17:19.522Z,64.05
2022-11-05T16:19:47.705Z,64.32
2022-11-05T16:22:15.525Z,64.27
2022-11-05T16:24:43.588Z,63.96
2022-11-05T16:27:19.453Z,63.84
2022-11-05T16:29:51.174Z,62.95
2022-11-05T16:32:28.524Z,63.45
2022-11-05T16:35:00.347Z,64.01
2022-11-05T16:37:28.936Z,63.98
2022-11-05T16:39:56.689Z,63.64
2022-11-05T16:42:40.169Z,63.81
2022-11-05T16:45:11.380Z,63.85
2022-11-05T16:47:39.209Z,64.13
2022-11-05T16:50:18.709Z,64.22
2022-11-05T16:52:47.024Z,64.46
2022-11-05T16:55:15.841Z,64.40
2022-11-05T16:57:47.573Z,64.38
2022-11-05T17:00:17.903Z,64.10
2022-11-05T17:02:46.245Z,64.86
2022-11-05T17:05:19.712Z,65.23
2022-11-05T17:07:48.034Z,65.26
2022-11-05T17:10:15.824Z,65.56
2022-11-05T17:12:46.063Z,66.33
2022-11-05T17:15:24.916Z,65.93
2022-11-05T17:17:53.727Z,66.27
2022-11-05T17:20:28.779Z,66.16
2022-11-05T17:22:57.423Z,67.03
2022-11-05T17:25:26.015Z,66.69
2022-11-05T17:27:55.208Z,66.63
2022-11-05T17:30:24.430Z,66.39
2022-11-05T17:32:52.201Z,65.77
2022-11-05T17:35:20.248Z,65.35
2022-11-05T17:37:48.206Z,65.14
2022-11-05T17:40:18.385Z,64.68
2022-11-05T17:42:46.666Z,65.13
2022-11-05T17:45:16.265Z,65.43
2022-11-05T17:47:44.540Z,65.76
2022-11-05T17:50:14.051Z,66.71
2022-11-05T17:52:41.735Z,66.68
2022-11-05T17:55:16.412Z,67.27
2022-11-05T17:57:45.713Z,66.87
2022-11-05T18:00:16.702Z,67.49
2022-11-05T18:02:45.969Z,67.93
2022-11-05T18:05:14.289Z,68.30
2022-11-05T18:07:42.048Z,67.51
2022-11-05T18:10:10.561Z,67.67
2022-11-05T18:12:38.424Z,67.27
2022-11-05T18:15:07.297Z,67.57
2022-11-05T18:17:36.757Z,67.59
2022-11-05T18:20:09.916Z,68.24
2022-11-05T18:22:40.853Z,68.29
2022-11-05T18:25:12.356Z,67.84
2022-11-05T18:27:40.776Z,67.48
2022-11-05T18:30:10.528Z,67.66
2022-11-05T18:32:39.954Z,68.03
2022-11-05T18:35:08.095Z,68.03
2022-11-05T18:37:35.698Z,68.25
2022-11-05T18:40:03.337Z,67.92
2022-11-05T18:42:31.238Z,68.02
2022-11-05T18:44:58.826Z,68.11
2022-11-05T18:47:26.946Z,68.32
2022-11-05T18:49:55.880Z,69.35
2022-11-05T18:52:23.693Z,69.75
2022-11-05T18:54:51.300Z,70.10
2022-11-05T18:57:18.949Z,70.17
2022-11-05T18:59:46.675Z,70.68
2022-11-05T19:02:15.458Z,70.90
2022-11-05T19:05:06.579Z,71.08
2022-11-05T19:07:36.822Z,71.42
2022-11-05T19:10:05.139Z,71.60
2022-11-05T19:12:33.628Z,71.51
2022-11-05T19:15:02.937Z,70.73
2022-11-05T19:17:32.344Z,70.67
2022-11-05T19:19:59.956Z,70.54
2022-11-05T19:22:27.733Z,70.65
2022-11-05T19:24:56.840Z,70.25
2022-11-05T19:27:24.461Z,70.36
2022-11-05T19:29:52.128Z,70.42
2022-11-05T19:32:21.154Z,70.65
2022-11-05T19:34:48.764Z,70.49
2022-11-05T19:37:16.574Z,70.84
2022-11-05T19:39:44.256Z,71.38
2022-11-05T19:42:13.213Z,71.93
2022-11-05T19:44:41.510Z,72.35
2022-11-05T19:47:09.159Z,72.87
2022-11-05T19:49:36.828Z,72.84
2022-11-05T19:52:04.590Z,72.53
2022-11-05T19:54:32.244Z,72.75
2022-11-05T19:56:59.941Z,72.67
2022-11-05T19:59:29.187Z,73.11
2022-11-05T20:01:56.986Z,73.59
2022-11-05T20:04:24.982Z,73.58
2022-11-05T20:06:52.670Z,73.39
2022-11-05T20:09:22.140Z,73.69
2022-11-05T20:11:51.048Z,73.61
2022-11-05T20:14:18.814Z,73.51
2022-11-05T20:16:47.996Z,73.38
2022-11-05T20:19:17.767Z,72.67
2022-11-05T20:21:46.068Z,72.46
2022-11-05T20:24:20.541Z,72.64
2022-11-05T20:26:52.287Z,73.02
2022-11-05T20:29:20.214Z,73.24
2022-11-05T20:31:49.351Z,73.72
2022-11-05T20:34:16.922Z,73.95
2022-11-05T20:36:44.608Z,74.03
2022-11-05T20:39:12.709Z,74.21
2022-11-05T20:41:40.377Z,74.29
2022-11-05T20:44:08.075Z,74.40
2022-11-05T20:46:35.680Z,74.69
2022-11-05T20:49:04.839Z,74.44
2022-11-05T20:51:32.532Z,74.30
2022-11-05T20:54:01.822Z,74.49
2022-11-05T20:56:31.361Z,74.14
2022-11-05T20:59:00.339Z,74.43
2022-11-05T21:01:29.328Z,74.36
2022-11-05T21:03:57.374Z,74.22
2022-11-05T21:06:26.830Z,74.23
2022-11-05T21:08:54.499Z,74.64
2022-11-05T21:11:22.124Z,75.17
2022-11-05T21:13:50.059Z,74.60
2022-11-05T21:16:19.224Z,74.44
2022-11-05T21:18:47.731Z,75.70
2022-11-05T21:21:18.155Z,76.00
2022-11-05T21:23:47.788Z,75.36
2022-11-05T21:26:17.815Z,74.57
2022-11-05T21:28:45.581Z,74.39
2022-11-05T21:31:13.213Z,74.77
2022-11-05T21:33:40.913Z,74.65
2022-11-05T21:36:10.678Z,74.47
2022-11-05T21:38:38.459Z,74.30
2022-11-05T21:41:08.385Z,74.55
2022-11-05T21:43:36.781Z,73.97
2022-11-05T21:46:05.580Z,74.61
2022-11-05T21:48:33.843Z,74.68
2022-11-05T21:51:19.123Z,74.45
2022-11-05T21:54:04.492Z,75.16
2022-11-05T21:56:51.609Z,75.45
2022-11-05T21:59:38.333Z,75.44
2022-11-05T22:02:06.586Z,75.39
2022-11-05T22:04:36.775Z,75.39
2022-11-05T22:07:04.958Z,75.85
2022-11-05T22:09:32.649Z,76.10
2022-11-05T22:12:01.987Z,76.16
2022-11-05T22:14:30.063Z,76.45
2022-11-05T22:16:58.206Z,76.49
2022-11-05T22:19:26.515Z,76.44
2022-11-05T22:21:54.246Z,76.49
2022-11-05T22:24:22.164Z,76.90
2022-11-05T22:26:49.981Z,77.37
2022-11-05T22:29:18.898Z,77.10
2022-11-05T22:31:46.567Z,76.71
2022-11-05T22:34:14.310Z,76.88
2022-11-05T22:36:42.016Z,77.36
2022-11-05T22:39:10.723Z,77.42
2022-11-05T22:41:38.561Z,77.68
2022-11-05T22:44:06.435Z,77.56
2022-11-05T22:46:35.509Z,77.44
2022-11-05T22:49:03.149Z,77.66
2022-11-05T22:51:32.721Z,77.62
2022-11-05T22:54:01.133Z,77.10
2022-11-05T22:56:30.769Z,76.89
2022-11-05T22:59:02.490Z,76.94
2022-11-05T23:01:30.451Z,77.51
2022-11-05T23:04:00.437Z,77.54
2022-11-05T23:06:49.787Z,77.42
2022-11-05T23:09:40.305Z,77.71
2022-11-05T23:12:18.974Z,77.80
2022-11-05T23:14:46.673Z,77.47
2022-11-05T23:17:31.907Z,76.98
2022-11-05T23:20:18.467Z,76.03
2022-11-05T23:23:03.688Z,76.39
2022-11-05T23:25:31.442Z,77.14
2022-11-05T23:27:59.047Z,77.97
2022-11-05T23:30:27.898Z,77.56
2022-11-05T23:32:55.589Z,76.85
2022-11-05T23:35:38.701Z,76.25
2022-11-05T23:38:23.374Z,76.34
2022-11-05T23:41:08.806Z,76.04
2022-11-05T23:43:54.042Z,75.63
2022-11-05T23:46:39.396Z,75.06
2022-11-05T23:49:08.429Z,75.05
2022-11-05T23:51:37.537Z,74.58
2022-11-05T23:54:05.342Z,74.17
2022-11-05T23:56:33.199Z,74.03
2022-11-05T23:59:00.815Z,73.79
